sensor_id;sensor_type;location;lat;lon;timestamp;P1;durP1;ratioP1;P2;durP2;ratioP2
53108;SDS011;39007;53.090;6.074;2023-06-22T00:00:55;13.15;;;10.40;;
53108;SDS011;39007;53.090;6.074;2023-06-22T00:03:21;11.75;;;9.77;;
53108;SDS011;39007;53.090;6.074;2023-06-22T00:05:48;7.20;;;4.75;;
53108;SDS011;39007;53.090;6.074;2023-06-22T00:08:14;41.28;;;4.90;;
53108;SDS011;39007;53.090;6.074;2023-06-22T00:10:41;10.25;;;7.10;;
53108;SDS011;39007;53.090;6.074;2023-06-22T00:13:07;29.67;;;7.13;;
53108;SDS011;39007;53.090;6.074;2023-06-22T00:15:34;193.43;;;10.38;;
53108;SDS011;39007;53.090;6.074;2023-06-22T00:18:00;36.13;;;6.85;;
53108;SDS011;39007;53.090;6.074;2023-06-22T00:20:27;26.35;;;8.35;;
53108;SDS011;39007;53.090;6.074;2023-06-22T00:22:57;55.78;;;9.27;;
53108;SDS011;39007;53.090;6.074;2023-06-22T00:25:23;170.73;;;11.50;;
53108;SDS011;39007;53.090;6.074;2023-06-22T00:27:50;10.68;;;9.43;;
53108;SDS011;39007;53.090;6.074;2023-06-22T00:30:16;11.27;;;10.07;;
53108;SDS011;39007;53.090;6.074;2023-06-22T00:32:43;10.82;;;9.68;;
53108;SDS011;39007;53.090;6.074;2023-06-22T00:35:09;11.90;;;10.68;;
53108;SDS011;39007;53.090;6.074;2023-06-22T00:37:36;12.90;;;11.00;;
53108;SDS011;39007;53.090;6.074;2023-06-22T00:40:06;8.65;;;7.78;;
53108;SDS011;39007;53.090;6.074;2023-06-22T00:42:33;9.77;;;8.80;;
53108;SDS011;39007;53.090;6.074;2023-06-22T00:45:00;19.85;;;12.18;;
53108;SDS011;39007;53.090;6.074;2023-06-22T00:47:26;15.65;;;13.60;;
53108;SDS011;39007;53.090;6.074;2023-06-22T00:49:52;12.80;;;11.48;;
53108;SDS011;39007;53.090;6.074;2023-06-22T00:52:20;16.80;;;12.95;;
53108;SDS011;39007;53.090;6.074;2023-06-22T00:54:52;14.20;;;12.52;;
53108;SDS011;39007;53.090;6.074;2023-06-22T00:57:18;10.95;;;9.85;;
53108;SDS011;39007;53.090;6.074;2023-06-22T00:59:44;11.18;;;10.05;;
53108;SDS011;39007;53.090;6.074;2023-06-22T01:02:11;15.27;;;13.68;;
53108;SDS011;39007;53.090;6.074;2023-06-22T01:04:38;17.13;;;14.13;;
53108;SDS011;39007;53.090;6.074;2023-06-22T01:09:32;15.25;;;13.60;;
53108;SDS011;39007;53.090;6.074;2023-06-22T01:12:03;21.80;;;16.30;;
53108;SDS011;39007;53.090;6.074;2023-06-22T01:14:35;20.40;;;15.43;;
53108;SDS011;39007;53.090;6.074;2023-06-22T01:17:03;19.02;;;16.58;;
53108;SDS011;39007;53.090;6.074;2023-06-22T01:22:06;19.08;;;15.50;;
53108;SDS011;39007;53.090;6.074;2023-06-22T01:29:51;17.35;;;15.45;;
53108;SDS011;39007;53.090;6.074;2023-06-22T01:32:18;19.05;;;16.38;;
53108;SDS011;39007;53.090;6.074;2023-06-22T01:34:45;20.65;;;17.80;;
53108;SDS011;39007;53.090;6.074;2023-06-22T01:37:12;19.02;;;16.58;;
53108;SDS011;39007;53.090;6.074;2023-06-22T01:39:38;20.38;;;18.17;;
53108;SDS011;39007;53.090;6.074;2023-06-22T01:42:05;19.92;;;17.75;;
53108;SDS011;39007;53.090;6.074;2023-06-22T01:44:32;22.45;;;18.45;;
53108;SDS011;39007;53.090;6.074;2023-06-22T01:46:59;20.15;;;18.05;;
53108;SDS011;39007;53.090;6.074;2023-06-22T01:49:25;20.15;;;18.02;;
53108;SDS011;39007;53.090;6.074;2023-06-22T01:51:51;22.00;;;18.42;;
53108;SDS011;39007;53.090;6.074;2023-06-22T01:54:19;20.83;;;18.55;;
53108;SDS011;39007;53.090;6.074;2023-06-22T01:56:45;23.27;;;19.52;;
53108;SDS011;39007;53.090;6.074;2023-06-22T01:59:17;21.35;;;18.50;;
53108;SDS011;39007;53.090;6.074;2023-06-22T02:01:49;21.98;;;18.90;;
53108;SDS011;39007;53.090;6.074;2023-06-22T02:04:21;21.55;;;18.27;;
53108;SDS011;39007;53.090;6.074;2023-06-22T02:06:47;21.23;;;19.02;;
53108;SDS011;39007;53.090;6.074;2023-06-22T02:09:17;20.83;;;18.63;;
53108;SDS011;39007;53.090;6.074;2023-06-22T02:11:45;21.40;;;18.52;;
53108;SDS011;39007;53.090;6.074;2023-06-22T02:14:12;21.20;;;17.70;;
53108;SDS011;39007;53.090;6.074;2023-06-22T02:16:39;22.02;;;18.40;;
53108;SDS011;39007;53.090;6.074;2023-06-22T02:19:06;23.48;;;18.90;;
53108;SDS011;39007;53.090;6.074;2023-06-22T02:21:33;22.98;;;20.55;;
53108;SDS011;39007;53.090;6.074;2023-06-22T02:23:59;25.17;;;21.15;;
53108;SDS011;39007;53.090;6.074;2023-06-22T02:26:25;22.73;;;20.27;;
53108;SDS011;39007;53.090;6.074;2023-06-22T02:28:52;26.05;;;21.70;;
53108;SDS011;39007;53.090;6.074;2023-06-22T02:31:18;28.98;;;22.83;;
53108;SDS011;39007;53.090;6.074;2023-06-22T02:33:45;32.15;;;23.63;;
53108;SDS011;39007;53.090;6.074;2023-06-22T02:36:11;24.17;;;21.02;;
53108;SDS011;39007;53.090;6.074;2023-06-22T02:38:38;24.58;;;20.20;;
53108;SDS011;39007;53.090;6.074;2023-06-22T02:41:04;24.05;;;20.35;;
53108;SDS011;39007;53.090;6.074;2023-06-22T02:43:31;14.18;;;12.68;;
53108;SDS011;39007;53.090;6.074;2023-06-22T02:45:57;13.65;;;8.55;;
53108;SDS011;39007;53.090;6.074;2023-06-22T02:48:23;10.32;;;9.02;;
53108;SDS011;39007;53.090;6.074;2023-06-22T02:50:50;10.45;;;8.63;;
53108;SDS011;39007;53.090;6.074;2023-06-22T02:53:16;69.35;;;8.02;;
53108;SDS011;39007;53.090;6.074;2023-06-22T02:55:42;96.95;;;9.52;;
53108;SDS011;39007;53.090;6.074;2023-06-22T02:58:08;220.80;;;12.77;;
53108;SDS011;39007;53.090;6.074;2023-06-22T03:00:34;15.70;;;12.93;;
53108;SDS011;39007;53.090;6.074;2023-06-22T03:03:00;14.73;;;13.15;;
53108;SDS011;39007;53.090;6.074;2023-06-22T03:05:26;225.85;;;16.02;;
53108;SDS011;39007;53.090;6.074;2023-06-22T03:07:52;74.65;;;13.27;;
53108;SDS011;39007;53.090;6.074;2023-06-22T03:10:18;24.58;;;14.23;;
53108;SDS011;39007;53.090;6.074;2023-06-22T03:12:46;70.95;;;12.57;;
53108;SDS011;39007;53.090;6.074;2023-06-22T03:15:12;12.95;;;11.43;;
53108;SDS011;39007;53.090;6.074;2023-06-22T03:17:39;13.75;;;12.38;;
53108;SDS011;39007;53.090;6.074;2023-06-22T03:20:06;13.50;;;12.20;;
53108;SDS011;39007;53.090;6.074;2023-06-22T03:22:41;12.85;;;11.48;;
53108;SDS011;39007;53.090;6.074;2023-06-22T03:25:08;9.77;;;8.85;;
53108;SDS011;39007;53.090;6.074;2023-06-22T03:27:41;10.02;;;9.02;;
53108;SDS011;39007;53.090;6.074;2023-06-22T03:30:08;11.30;;;10.02;;
53108;SDS011;39007;53.090;6.074;2023-06-22T03:32:34;12.52;;;11.27;;
53108;SDS011;39007;53.090;6.074;2023-06-22T03:35:01;11.90;;;10.70;;
53108;SDS011;39007;53.090;6.074;2023-06-22T03:37:27;15.30;;;12.18;;
53108;SDS011;39007;53.090;6.074;2023-06-22T03:39:54;13.40;;;12.00;;
53108;SDS011;39007;53.090;6.074;2023-06-22T03:42:20;12.95;;;11.65;;
53108;SDS011;39007;53.090;6.074;2023-06-22T03:44:46;14.90;;;11.18;;
53108;SDS011;39007;53.090;6.074;2023-06-22T03:47:13;13.23;;;11.20;;
53108;SDS011;39007;53.090;6.074;2023-06-22T03:49:39;10.65;;;8.32;;
53108;SDS011;39007;53.090;6.074;2023-06-22T03:52:05;8.63;;;7.80;;
53108;SDS011;39007;53.090;6.074;2023-06-22T03:54:31;8.75;;;7.85;;
53108;SDS011;39007;53.090;6.074;2023-06-22T03:56:57;9.27;;;8.48;;
53108;SDS011;39007;53.090;6.074;2023-06-22T03:59:24;8.30;;;7.47;;
53108;SDS011;39007;53.090;6.074;2023-06-22T04:01:50;9.27;;;8.38;;
53108;SDS011;39007;53.090;6.074;2023-06-22T04:04:19;9.02;;;8.13;;
53108;SDS011;39007;53.090;6.074;2023-06-22T04:06:46;9.75;;;8.85;;
53108;SDS011;39007;53.090;6.074;2023-06-22T04:09:12;9.30;;;8.40;;
53108;SDS011;39007;53.090;6.074;2023-06-22T04:11:38;8.95;;;8.05;;
53108;SDS011;39007;53.090;6.074;2023-06-22T04:14:04;8.32;;;7.53;;
53108;SDS011;39007;53.090;6.074;2023-06-22T04:16:30;11.00;;;8.48;;
53108;SDS011;39007;53.090;6.074;2023-06-22T04:18:56;9.30;;;8.40;;
53108;SDS011;39007;53.090;6.074;2023-06-22T04:21:22;10.98;;;9.70;;
53108;SDS011;39007;53.090;6.074;2023-06-22T04:23:49;10.45;;;9.43;;
53108;SDS011;39007;53.090;6.074;2023-06-22T04:26:15;10.43;;;9.43;;
53108;SDS011;39007;53.090;6.074;2023-06-22T04:28:41;11.15;;;10.05;;
53108;SDS011;39007;53.090;6.074;2023-06-22T04:31:07;12.07;;;10.75;;
53108;SDS011;39007;53.090;6.074;2023-06-22T04:33:33;13.85;;;11.88;;
53108;SDS011;39007;53.090;6.074;2023-06-22T04:35:59;13.80;;;12.30;;
53108;SDS011;39007;53.090;6.074;2023-06-22T04:38:26;12.95;;;11.57;;
53108;SDS011;39007;53.090;6.074;2023-06-22T04:40:52;14.65;;;13.07;;
53108;SDS011;39007;53.090;6.074;2023-06-22T04:43:19;17.83;;;14.80;;
53108;SDS011;39007;53.090;6.074;2023-06-22T04:45:45;16.08;;;14.20;;
53108;SDS011;39007;53.090;6.074;2023-06-22T04:48:11;15.68;;;14.07;;
53108;SDS011;39007;53.090;6.074;2023-06-22T04:50:41;18.38;;;16.48;;
53108;SDS011;39007;53.090;6.074;2023-06-22T04:53:09;20.95;;;18.70;;
53108;SDS011;39007;53.090;6.074;2023-06-22T04:55:39;22.35;;;19.02;;
53108;SDS011;39007;53.090;6.074;2023-06-22T04:58:06;22.15;;;19.83;;
53108;SDS011;39007;53.090;6.074;2023-06-22T05:00:33;25.00;;;20.85;;
53108;SDS011;39007;53.090;6.074;2023-06-22T05:03:01;25.52;;;21.25;;
53108;SDS011;39007;53.090;6.074;2023-06-22T05:05:28;25.58;;;21.50;;
53108;SDS011;39007;53.090;6.074;2023-06-22T05:07:56;27.08;;;21.95;;
53108;SDS011;39007;53.090;6.074;2023-06-22T05:10:25;23.33;;;20.92;;
53108;SDS011;39007;53.090;6.074;2023-06-22T05:12:51;26.05;;;21.73;;
53108;SDS011;39007;53.090;6.074;2023-06-22T05:15:18;26.17;;;21.75;;
53108;SDS011;39007;53.090;6.074;2023-06-22T05:17:44;25.10;;;21.25;;
53108;SDS011;39007;53.090;6.074;2023-06-22T05:20:11;24.80;;;20.90;;
53108;SDS011;39007;53.090;6.074;2023-06-22T05:22:38;28.52;;;23.27;;
53108;SDS011;39007;53.090;6.074;2023-06-22T05:25:05;30.10;;;24.02;;
53108;SDS011;39007;53.090;6.074;2023-06-22T05:27:31;29.92;;;22.73;;
53108;SDS011;39007;53.090;6.074;2023-06-22T05:29:57;26.60;;;22.77;;
53108;SDS011;39007;53.090;6.074;2023-06-22T05:32:24;32.97;;;25.70;;
53108;SDS011;39007;53.090;6.074;2023-06-22T05:34:50;32.17;;;25.55;;
53108;SDS011;39007;53.090;6.074;2023-06-22T05:37:16;31.75;;;26.02;;
53108;SDS011;39007;53.090;6.074;2023-06-22T05:39:42;36.00;;;26.30;;
53108;SDS011;39007;53.090;6.074;2023-06-22T05:42:09;33.53;;;25.08;;
53108;SDS011;39007;53.090;6.074;2023-06-22T05:44:35;36.35;;;25.35;;
53108;SDS011;39007;53.090;6.074;2023-06-22T05:47:02;33.65;;;26.23;;
53108;SDS011;39007;53.090;6.074;2023-06-22T05:49:28;37.28;;;26.17;;
53108;SDS011;39007;53.090;6.074;2023-06-22T05:51:57;32.92;;;26.25;;
53108;SDS011;39007;53.090;6.074;2023-06-22T05:54:23;33.85;;;26.48;;
53108;SDS011;39007;53.090;6.074;2023-06-22T05:56:49;34.90;;;26.40;;
53108;SDS011;39007;53.090;6.074;2023-06-22T05:59:16;31.10;;;25.33;;
53108;SDS011;39007;53.090;6.074;2023-06-22T06:01:43;33.55;;;26.38;;
53108;SDS011;39007;53.090;6.074;2023-06-22T06:04:09;32.90;;;27.83;;
53108;SDS011;39007;53.090;6.074;2023-06-22T06:06:35;35.30;;;26.35;;
53108;SDS011;39007;53.090;6.074;2023-06-22T06:09:05;27.10;;;22.90;;
53108;SDS011;39007;53.090;6.074;2023-06-22T06:11:32;32.63;;;25.45;;
53108;SDS011;39007;53.090;6.074;2023-06-22T06:13:59;30.40;;;24.77;;
53108;SDS011;39007;53.090;6.074;2023-06-22T06:16:25;30.13;;;25.35;;
53108;SDS011;39007;53.090;6.074;2023-06-22T06:18:51;26.63;;;23.83;;
53108;SDS011;39007;53.090;6.074;2023-06-22T06:21:18;27.30;;;23.75;;
53108;SDS011;39007;53.090;6.074;2023-06-22T06:23:44;29.40;;;23.48;;
53108;SDS011;39007;53.090;6.074;2023-06-22T06:26:10;27.33;;;23.45;;
53108;SDS011;39007;53.090;6.074;2023-06-22T06:28:36;26.52;;;22.92;;
53108;SDS011;39007;53.090;6.074;2023-06-22T06:31:03;26.85;;;22.02;;
53108;SDS011;39007;53.090;6.074;2023-06-22T06:33:32;27.08;;;22.88;;
53108;SDS011;39007;53.090;6.074;2023-06-22T06:35:58;27.25;;;23.13;;
53108;SDS011;39007;53.090;6.074;2023-06-22T06:38:26;27.35;;;23.27;;
53108;SDS011;39007;53.090;6.074;2023-06-22T06:40:53;24.70;;;21.13;;
53108;SDS011;39007;53.090;6.074;2023-06-22T06:43:19;26.45;;;22.77;;
53108;SDS011;39007;53.090;6.074;2023-06-22T06:45:45;22.95;;;20.40;;
53108;SDS011;39007;53.090;6.074;2023-06-22T06:48:11;27.60;;;22.65;;
53108;SDS011;39007;53.090;6.074;2023-06-22T06:50:37;26.10;;;19.65;;
53108;SDS011;39007;53.090;6.074;2023-06-22T06:53:03;22.65;;;19.17;;
53108;SDS011;39007;53.090;6.074;2023-06-22T06:55:31;22.23;;;19.70;;
53108;SDS011;39007;53.090;6.074;2023-06-22T06:57:58;21.80;;;19.25;;
53108;SDS011;39007;53.090;6.074;2023-06-22T07:00:25;24.23;;;20.27;;
53108;SDS011;39007;53.090;6.074;2023-06-22T07:02:51;25.08;;;21.67;;
53108;SDS011;39007;53.090;6.074;2023-06-22T07:05:17;24.05;;;21.05;;
53108;SDS011;39007;53.090;6.074;2023-06-22T07:07:43;26.75;;;20.58;;
53108;SDS011;39007;53.090;6.074;2023-06-22T07:10:09;24.90;;;19.88;;
53108;SDS011;39007;53.090;6.074;2023-06-22T07:12:36;21.88;;;19.33;;
53108;SDS011;39007;53.090;6.074;2023-06-22T07:15:03;25.27;;;21.83;;
53108;SDS011;39007;53.090;6.074;2023-06-22T07:17:29;21.92;;;19.50;;
53108;SDS011;39007;53.090;6.074;2023-06-22T07:19:55;23.92;;;19.10;;
53108;SDS011;39007;53.090;6.074;2023-06-22T07:22:21;22.92;;;19.95;;
53108;SDS011;39007;53.090;6.074;2023-06-22T07:24:47;26.52;;;20.50;;
53108;SDS011;39007;53.090;6.074;2023-06-22T07:27:14;23.55;;;20.33;;
53108;SDS011;39007;53.090;6.074;2023-06-22T07:29:44;22.25;;;18.58;;
53108;SDS011;39007;53.090;6.074;2023-06-22T07:32:10;23.33;;;19.90;;
53108;SDS011;39007;53.090;6.074;2023-06-22T07:34:36;23.15;;;19.92;;
53108;SDS011;39007;53.090;6.074;2023-06-22T07:37:03;22.60;;;20.08;;
53108;SDS011;39007;53.090;6.074;2023-06-22T07:39:30;23.42;;;18.23;;
53108;SDS011;39007;53.090;6.074;2023-06-22T07:41:56;22.55;;;17.65;;
53108;SDS011;39007;53.090;6.074;2023-06-22T07:44:22;21.98;;;17.10;;
53108;SDS011;39007;53.090;6.074;2023-06-22T07:46:48;20.58;;;17.30;;
53108;SDS011;39007;53.090;6.074;2023-06-22T07:49:14;22.75;;;18.80;;
53108;SDS011;39007;53.090;6.074;2023-06-22T07:51:40;22.30;;;17.77;;
53108;SDS011;39007;53.090;6.074;2023-06-22T07:54:06;20.65;;;16.52;;
53108;SDS011;39007;53.090;6.074;2023-06-22T07:56:32;20.35;;;14.88;;
53108;SDS011;39007;53.090;6.074;2023-06-22T07:58:58;19.13;;;14.57;;
53108;SDS011;39007;53.090;6.074;2023-06-22T08:01:26;18.15;;;13.50;;
53108;SDS011;39007;53.090;6.074;2023-06-22T08:03:52;18.65;;;14.60;;
53108;SDS011;39007;53.090;6.074;2023-06-22T08:06:18;18.88;;;13.23;;
53108;SDS011;39007;53.090;6.074;2023-06-22T08:08:44;14.88;;;11.02;;
53108;SDS011;39007;53.090;6.074;2023-06-22T08:11:13;13.30;;;10.65;;
53108;SDS011;39007;53.090;6.074;2023-06-22T08:13:39;15.38;;;11.95;;
53108;SDS011;39007;53.090;6.074;2023-06-22T08:16:05;18.25;;;11.82;;
53108;SDS011;39007;53.090;6.074;2023-06-22T08:18:32;13.65;;;10.93;;
53108;SDS011;39007;53.090;6.074;2023-06-22T08:20:58;13.38;;;10.00;;
53108;SDS011;39007;53.090;6.074;2023-06-22T08:23:24;19.92;;;11.90;;
53108;SDS011;39007;53.090;6.074;2023-06-22T08:25:50;15.73;;;12.02;;
53108;SDS011;39007;53.090;6.074;2023-06-22T08:28:16;15.23;;;11.50;;
53108;SDS011;39007;53.090;6.074;2023-06-22T08:30:43;14.80;;;11.85;;
53108;SDS011;39007;53.090;6.074;2023-06-22T08:33:09;15.10;;;12.50;;
53108;SDS011;39007;53.090;6.074;2023-06-22T08:35:35;18.40;;;13.40;;
53108;SDS011;39007;53.090;6.074;2023-06-22T08:38:01;20.85;;;13.27;;
53108;SDS011;39007;53.090;6.074;2023-06-22T08:40:27;16.67;;;12.57;;
53108;SDS011;39007;53.090;6.074;2023-06-22T08:42:54;13.45;;;10.82;;
53108;SDS011;39007;53.090;6.074;2023-06-22T08:45:20;15.27;;;13.07;;
53108;SDS011;39007;53.090;6.074;2023-06-22T08:47:46;16.38;;;11.68;;
53108;SDS011;39007;53.090;6.074;2023-06-22T08:50:12;16.50;;;12.13;;
53108;SDS011;39007;53.090;6.074;2023-06-22T08:52:39;13.18;;;11.50;;
53108;SDS011;39007;53.090;6.074;2023-06-22T08:55:09;13.30;;;10.45;;
53108;SDS011;39007;53.090;6.074;2023-06-22T08:57:35;12.35;;;9.48;;
53108;SDS011;39007;53.090;6.074;2023-06-22T09:00:08;12.38;;;8.38;;
53108;SDS011;39007;53.090;6.074;2023-06-22T09:02:43;12.32;;;8.23;;
53108;SDS011;39007;53.090;6.074;2023-06-22T09:05:09;12.63;;;8.90;;
53108;SDS011;39007;53.090;6.074;2023-06-22T09:07:35;13.43;;;8.95;;
53108;SDS011;39007;53.090;6.074;2023-06-22T09:10:01;10.43;;;7.70;;
53108;SDS011;39007;53.090;6.074;2023-06-22T09:12:29;12.43;;;7.75;;
53108;SDS011;39007;53.090;6.074;2023-06-22T09:14:55;11.13;;;7.03;;
53108;SDS011;39007;53.090;6.074;2023-06-22T09:17:22;11.48;;;8.75;;
53108;SDS011;39007;53.090;6.074;2023-06-22T09:19:48;12.13;;;8.27;;
53108;SDS011;39007;53.090;6.074;2023-06-22T09:22:14;14.48;;;8.80;;
53108;SDS011;39007;53.090;6.074;2023-06-22T09:24:40;11.90;;;8.07;;
53108;SDS011;39007;53.090;6.074;2023-06-22T09:27:06;13.20;;;9.25;;
53108;SDS011;39007;53.090;6.074;2023-06-22T09:29:32;14.43;;;9.02;;
53108;SDS011;39007;53.090;6.074;2023-06-22T09:31:59;13.73;;;8.70;;
53108;SDS011;39007;53.090;6.074;2023-06-22T09:34:25;10.65;;;7.55;;
53108;SDS011;39007;53.090;6.074;2023-06-22T09:36:52;13.88;;;10.02;;
53108;SDS011;39007;53.090;6.074;2023-06-22T09:39:18;10.82;;;8.15;;
53108;SDS011;39007;53.090;6.074;2023-06-22T09:41:44;13.38;;;9.27;;
53108;SDS011;39007;53.090;6.074;2023-06-22T09:44:10;12.88;;;9.77;;
53108;SDS011;39007;53.090;6.074;2023-06-22T09:46:36;14.15;;;9.25;;
53108;SDS011;39007;53.090;6.074;2023-06-22T09:49:02;11.00;;;8.15;;
53108;SDS011;39007;53.090;6.074;2023-06-22T09:51:28;14.90;;;7.90;;
53108;SDS011;39007;53.090;6.074;2023-06-22T09:53:54;10.32;;;7.80;;
53108;SDS011;39007;53.090;6.074;2023-06-22T09:56:20;11.63;;;7.70;;
53108;SDS011;39007;53.090;6.074;2023-06-22T09:58:46;13.40;;;8.40;;
53108;SDS011;39007;53.090;6.074;2023-06-22T10:01:15;11.77;;;8.85;;
53108;SDS011;39007;53.090;6.074;2023-06-22T10:03:41;12.25;;;8.85;;
53108;SDS011;39007;53.090;6.074;2023-06-22T10:06:07;12.13;;;7.53;;
53108;SDS011;39007;53.090;6.074;2023-06-22T10:08:34;11.80;;;7.40;;
53108;SDS011;39007;53.090;6.074;2023-06-22T10:11:00;11.85;;;7.00;;
53108;SDS011;39007;53.090;6.074;2023-06-22T10:13:27;11.98;;;8.23;;
53108;SDS011;39007;53.090;6.074;2023-06-22T10:15:53;14.18;;;6.90;;
53108;SDS011;39007;53.090;6.074;2023-06-22T10:18:19;12.98;;;7.05;;
53108;SDS011;39007;53.090;6.074;2023-06-22T10:20:49;11.88;;;7.15;;
53108;SDS011;39007;53.090;6.074;2023-06-22T10:23:18;11.32;;;6.45;;
53108;SDS011;39007;53.090;6.074;2023-06-22T10:25:44;10.30;;;5.68;;
53108;SDS011;39007;53.090;6.074;2023-06-22T10:28:10;9.63;;;6.50;;
53108;SDS011;39007;53.090;6.074;2023-06-22T10:30:38;10.65;;;7.88;;
53108;SDS011;39007;53.090;6.074;2023-06-22T10:33:06;11.48;;;6.57;;
53108;SDS011;39007;53.090;6.074;2023-06-22T10:35:32;7.95;;;5.57;;
53108;SDS011;39007;53.090;6.074;2023-06-22T10:37:58;9.27;;;5.85;;
53108;SDS011;39007;53.090;6.074;2023-06-22T10:40:25;10.75;;;6.72;;
53108;SDS011;39007;53.090;6.074;2023-06-22T10:42:51;10.43;;;6.20;;
53108;SDS011;39007;53.090;6.074;2023-06-22T10:45:17;15.45;;;6.65;;
53108;SDS011;39007;53.090;6.074;2023-06-22T10:47:43;8.40;;;5.82;;
53108;SDS011;39007;53.090;6.074;2023-06-22T10:50:09;10.88;;;6.60;;
53108;SDS011;39007;53.090;6.074;2023-06-22T10:52:36;10.98;;;5.80;;
53108;SDS011;39007;53.090;6.074;2023-06-22T10:55:02;9.00;;;5.43;;
53108;SDS011;39007;53.090;6.074;2023-06-22T10:57:28;13.45;;;7.03;;
53108;SDS011;39007;53.090;6.074;2023-06-22T10:59:54;10.65;;;6.18;;
53108;SDS011;39007;53.090;6.074;2023-06-22T11:02:21;9.20;;;4.95;;
53108;SDS011;39007;53.090;6.074;2023-06-22T11:04:47;9.48;;;5.57;;
53108;SDS011;39007;53.090;6.074;2023-06-22T11:07:13;10.48;;;5.38;;
53108;SDS011;39007;53.090;6.074;2023-06-22T11:09:39;9.32;;;5.72;;
53108;SDS011;39007;53.090;6.074;2023-06-22T11:12:05;8.50;;;5.20;;
53108;SDS011;39007;53.090;6.074;2023-06-22T11:14:31;8.35;;;4.70;;
53108;SDS011;39007;53.090;6.074;2023-06-22T11:17:00;8.88;;;5.63;;
53108;SDS011;39007;53.090;6.074;2023-06-22T11:19:26;7.72;;;4.50;;
53108;SDS011;39007;53.090;6.074;2023-06-22T11:21:52;8.90;;;5.72;;
53108;SDS011;39007;53.090;6.074;2023-06-22T11:24:18;9.23;;;5.18;;
53108;SDS011;39007;53.090;6.074;2023-06-22T11:26:44;8.18;;;4.43;;
53108;SDS011;39007;53.090;6.074;2023-06-22T11:29:11;9.48;;;4.53;;
53108;SDS011;39007;53.090;6.074;2023-06-22T11:31:37;7.60;;;4.28;;
53108;SDS011;39007;53.090;6.074;2023-06-22T11:34:03;8.57;;;4.88;;
53108;SDS011;39007;53.090;6.074;2023-06-22T11:36:29;12.70;;;5.30;;
53108;SDS011;39007;53.090;6.074;2023-06-22T11:38:58;9.25;;;4.45;;
53108;SDS011;39007;53.090;6.074;2023-06-22T11:41:24;9.38;;;4.90;;
53108;SDS011;39007;53.090;6.074;2023-06-22T11:43:50;8.25;;;5.10;;
53108;SDS011;39007;53.090;6.074;2023-06-22T11:46:16;7.18;;;4.60;;
53108;SDS011;39007;53.090;6.074;2023-06-22T11:48:42;6.85;;;4.55;;
53108;SDS011;39007;53.090;6.074;2023-06-22T11:51:08;6.50;;;4.20;;
53108;SDS011;39007;53.090;6.074;2023-06-22T11:53:34;7.65;;;4.22;;
53108;SDS011;39007;53.090;6.074;2023-06-22T11:56:01;8.57;;;5.90;;
53108;SDS011;39007;53.090;6.074;2023-06-22T11:58:27;8.98;;;5.32;;
53108;SDS011;39007;53.090;6.074;2023-06-22T12:00:53;8.82;;;5.13;;
53108;SDS011;39007;53.090;6.074;2023-06-22T12:03:19;6.88;;;4.10;;
53108;SDS011;39007;53.090;6.074;2023-06-22T12:05:49;6.93;;;4.10;;
53108;SDS011;39007;53.090;6.074;2023-06-22T12:08:19;6.80;;;4.78;;
53108;SDS011;39007;53.090;6.074;2023-06-22T12:10:45;7.95;;;4.30;;
53108;SDS011;39007;53.090;6.074;2023-06-22T12:13:11;7.10;;;4.20;;
53108;SDS011;39007;53.090;6.074;2023-06-22T12:15:37;8.57;;;4.95;;
53108;SDS011;39007;53.090;6.074;2023-06-22T12:18:03;8.18;;;5.30;;
53108;SDS011;39007;53.090;6.074;2023-06-22T12:20:30;8.15;;;4.53;;
53108;SDS011;39007;53.090;6.074;2023-06-22T12:22:56;9.50;;;4.55;;
53108;SDS011;39007;53.090;6.074;2023-06-22T12:25:23;7.40;;;4.60;;
53108;SDS011;39007;53.090;6.074;2023-06-22T12:27:49;6.82;;;4.80;;
53108;SDS011;39007;53.090;6.074;2023-06-22T12:30:16;7.88;;;4.45;;
53108;SDS011;39007;53.090;6.074;2023-06-22T12:32:42;7.60;;;4.50;;
53108;SDS011;39007;53.090;6.074;2023-06-22T12:35:08;9.63;;;7.10;;
53108;SDS011;39007;53.090;6.074;2023-06-22T12:37:39;9.52;;;7.32;;
53108;SDS011;39007;53.090;6.074;2023-06-22T12:40:06;10.77;;;5.70;;
53108;SDS011;39007;53.090;6.074;2023-06-22T12:42:32;9.70;;;5.53;;
53108;SDS011;39007;53.090;6.074;2023-06-22T12:44:58;9.57;;;5.72;;
53108;SDS011;39007;53.090;6.074;2023-06-22T12:47:24;8.00;;;5.65;;
53108;SDS011;39007;53.090;6.074;2023-06-22T12:49:51;8.45;;;5.88;;
53108;SDS011;39007;53.090;6.074;2023-06-22T12:52:17;8.32;;;4.90;;
53108;SDS011;39007;53.090;6.074;2023-06-22T12:54:43;9.88;;;5.28;;
53108;SDS011;39007;53.090;6.074;2023-06-22T12:57:09;8.15;;;6.30;;
53108;SDS011;39007;53.090;6.074;2023-06-22T12:59:35;11.82;;;6.35;;
53108;SDS011;39007;53.090;6.074;2023-06-22T13:02:01;10.30;;;6.20;;
53108;SDS011;39007;53.090;6.074;2023-06-22T13:04:27;7.13;;;5.45;;
53108;SDS011;39007;53.090;6.074;2023-06-22T13:06:53;9.10;;;5.35;;
53108;SDS011;39007;53.090;6.074;2023-06-22T13:09:19;8.90;;;5.35;;
53108;SDS011;39007;53.090;6.074;2023-06-22T13:11:45;8.48;;;5.88;;
53108;SDS011;39007;53.090;6.074;2023-06-22T13:14:11;11.20;;;6.45;;
53108;SDS011;39007;53.090;6.074;2023-06-22T13:16:37;9.82;;;5.40;;
53108;SDS011;39007;53.090;6.074;2023-06-22T13:19:03;10.32;;;6.07;;
53108;SDS011;39007;53.090;6.074;2023-06-22T13:21:30;12.13;;;5.93;;
53108;SDS011;39007;53.090;6.074;2023-06-22T13:23:56;11.15;;;5.70;;
53108;SDS011;39007;53.090;6.074;2023-06-22T13:26:22;7.22;;;4.88;;
53108;SDS011;39007;53.090;6.074;2023-06-22T13:28:48;9.68;;;5.63;;
53108;SDS011;39007;53.090;6.074;2023-06-22T13:31:15;7.80;;;4.60;;
53108;SDS011;39007;53.090;6.074;2023-06-22T13:33:41;7.30;;;4.68;;
53108;SDS011;39007;53.090;6.074;2023-06-22T13:36:07;8.90;;;4.93;;
53108;SDS011;39007;53.090;6.074;2023-06-22T13:38:34;9.00;;;4.25;;
53108;SDS011;39007;53.090;6.074;2023-06-22T13:41:03;7.32;;;4.18;;
53108;SDS011;39007;53.090;6.074;2023-06-22T13:43:29;8.45;;;4.15;;
53108;SDS011;39007;53.090;6.074;2023-06-22T13:45:55;8.48;;;3.55;;
53108;SDS011;39007;53.090;6.074;2023-06-22T13:48:21;9.82;;;4.88;;
53108;SDS011;39007;53.090;6.074;2023-06-22T13:50:48;9.38;;;4.50;;
53108;SDS011;39007;53.090;6.074;2023-06-22T13:53:14;5.80;;;3.80;;
53108;SDS011;39007;53.090;6.074;2023-06-22T13:55:41;7.70;;;3.30;;
53108;SDS011;39007;53.090;6.074;2023-06-22T13:58:07;4.82;;;2.80;;
53108;SDS011;39007;53.090;6.074;2023-06-22T14:00:33;6.28;;;3.33;;
53108;SDS011;39007;53.090;6.074;2023-06-22T14:02:59;7.20;;;3.20;;
53108;SDS011;39007;53.090;6.074;2023-06-22T14:05:25;5.50;;;2.88;;
53108;SDS011;39007;53.090;6.074;2023-06-22T14:07:51;4.30;;;2.70;;
53108;SDS011;39007;53.090;6.074;2023-06-22T14:10:17;6.55;;;2.63;;
53108;SDS011;39007;53.090;6.074;2023-06-22T14:12:43;5.03;;;2.65;;
53108;SDS011;39007;53.090;6.074;2023-06-22T14:15:09;6.50;;;2.95;;
53108;SDS011;39007;53.090;6.074;2023-06-22T14:17:36;7.65;;;3.30;;
53108;SDS011;39007;53.090;6.074;2023-06-22T14:20:02;4.18;;;2.70;;
53108;SDS011;39007;53.090;6.074;2023-06-22T14:22:28;6.78;;;2.88;;
53108;SDS011;39007;53.090;6.074;2023-06-22T14:24:55;5.38;;;2.70;;
53108;SDS011;39007;53.090;6.074;2023-06-22T14:27:22;5.30;;;2.80;;
53108;SDS011;39007;53.090;6.074;2023-06-22T14:29:48;5.35;;;2.50;;
53108;SDS011;39007;53.090;6.074;2023-06-22T14:32:14;5.03;;;2.67;;
53108;SDS011;39007;53.090;6.074;2023-06-22T14:34:41;5.38;;;2.58;;
53108;SDS011;39007;53.090;6.074;2023-06-22T14:37:08;6.05;;;2.40;;